createdAt,value
2024-01-20T00:00:24.213Z,9.38
2024-01-20T00:03:26.119Z,8.75
2024-01-20T00:06:29.522Z,8.02
2024-01-20T00:09:38.614Z,13.45
2024-01-20T00:12:47.799Z,6.75
2024-01-20T00:15:49.966Z,9.57
2024-01-20T00:18:52.046Z,9.73
2024-01-20T00:21:54.712Z,10.30
2024-01-20T00:25:00.396Z,11.45
2024-01-20T00:28:04.930Z,9.90
2024-01-20T00:31:08.042Z,11.00
2024-01-20T00:34:10.068Z,8.10
2024-01-20T00:37:13.148Z,9.02
2024-01-20T00:40:15.432Z,7.40
2024-01-20T00:43:17.601Z,9.13
2024-01-20T00:46:19.483Z,7.13
2024-01-20T00:49:21.419Z,6.82
2024-01-20T00:52:23.540Z,5.70
2024-01-20T00:55:25.687Z,9.38
2024-01-20T00:58:27.587Z,7.53
2024-01-20T01:01:29.524Z,7.70
2024-01-20T01:04:31.340Z,9.73
2024-01-20T01:07:34.083Z,8.30
2024-01-20T01:10:36.031Z,8.60
2024-01-20T01:13:40.491Z,9.77
2024-01-20T01:16:42.918Z,9.45
2024-01-20T01:19:46.923Z,7.63
2024-01-20T01:22:51.802Z,8.73
2024-01-20T01:25:55.301Z,8.15
2024-01-20T01:28:57.245Z,11.45
2024-01-20T01:31:59.637Z,8.43
2024-01-20T01:35:01.607Z,6.00
2024-01-20T01:38:03.822Z,8.55
2024-01-20T01:41:05.905Z,7.68
2024-01-20T01:44:08.001Z,8.25
2024-01-20T01:47:10.721Z,7.40
2024-01-20T01:50:13.909Z,9.52
2024-01-20T01:53:16.562Z,8.68
2024-01-20T01:56:18.529Z,6.28
2024-01-20T01:59:20.983Z,7.93
2024-01-20T02:02:22.969Z,6.50
2024-01-20T02:05:25.297Z,8.70
2024-01-20T02:08:29.998Z,7.75
2024-01-20T02:11:32.715Z,7.90
2024-01-20T02:14:35.803Z,7.35
2024-01-20T02:17:37.745Z,7.95
2024-01-20T02:20:39.667Z,8.88
2024-01-20T02:23:42.265Z,6.47
2024-01-20T02:26:44.604Z,6.95
2024-01-20T02:29:46.618Z,7.32
2024-01-20T02:32:48.786Z,9.20
2024-01-20T02:35:50.934Z,6.10
2024-01-20T02:38:53.192Z,6.30
2024-01-20T02:41:55.222Z,6.68
2024-01-20T02:44:57.307Z,6.13
2024-01-20T02:48:00.034Z,5.30
2024-01-20T02:51:02.243Z,4.70
2024-01-20T02:54:04.742Z,6.55
2024-01-20T02:57:06.712Z,7.47
2024-01-20T03:00:09.497Z,6.55
2024-01-20T03:03:11.900Z,5.05
2024-01-20T03:06:13.847Z,7.63
2024-01-20T03:09:16.339Z,6.40
2024-01-20T03:12:18.454Z,6.78
2024-01-20T03:15:20.512Z,5.93
2024-01-20T03:18:23.052Z,4.45
2024-01-20T03:21:25.103Z,5.15
2024-01-20T03:24:27.181Z,5.65
2024-01-20T03:27:29.170Z,5.03
2024-01-20T03:30:31.096Z,5.07
2024-01-20T03:33:33.142Z,5.60
2024-01-20T03:36:35.101Z,6.68
2024-01-20T03:39:37.071Z,7.00
2024-01-20T03:42:39.061Z,6.95
2024-01-20T03:45:44.156Z,7.57
2024-01-20T03:48:46.272Z,9.00
2024-01-20T03:51:48.320Z,8.25
2024-01-20T03:54:50.247Z,7.88
2024-01-20T03:57:52.158Z,8.15
2024-01-20T04:00:54.105Z,7.30
2024-01-20T04:03:56.115Z,6.10
2024-01-20T04:06:58.171Z,5.65
2024-01-20T04:10:00.083Z,5.10
2024-01-20T04:13:02.230Z,8.77
2024-01-20T04:16:04.349Z,4.88
2024-01-20T04:19:06.393Z,7.10
2024-01-20T04:22:08.841Z,5.93
2024-01-20T04:25:11.588Z,16.27
2024-01-20T04:28:13.647Z,11.98
2024-01-20T04:31:15.538Z,11.93
2024-01-20T04:34:17.602Z,8.05
2024-01-20T04:37:19.564Z,9.38
2024-01-20T04:40:22.724Z,5.63
2024-01-20T04:43:24.561Z,7.90
2024-01-20T04:46:26.463Z,6.95
2024-01-20T04:49:28.487Z,6.75
2024-01-20T04:52:30.419Z,7.55
2024-01-20T04:55:32.782Z,5.97
2024-01-20T04:58:34.856Z,6.70
2024-01-20T05:01:38.894Z,7.32
2024-01-20T05:04:42.360Z,7.55
2024-01-20T05:07:44.372Z,6.18
2024-01-20T05:10:47.103Z,7.45
2024-01-20T05:13:49.671Z,9.10
2024-01-20T05:16:51.573Z,18.98
2024-01-20T05:19:54.095Z,16.00
2024-01-20T05:22:56.122Z,12.50
2024-01-20T05:25:58.087Z,17.85
2024-01-20T05:29:00.001Z,15.00
2024-01-20T05:32:01.966Z,16.98
2024-01-20T05:35:04.276Z,12.50
2024-01-20T05:38:06.140Z,13.93
2024-01-20T05:41:09.592Z,16.92
2024-01-20T05:44:12.237Z,13.82
2024-01-20T05:47:15.166Z,16.08
2024-01-20T05:50:17.186Z,13.35
2024-01-20T05:53:21.254Z,13.82
2024-01-20T05:56:24.831Z,14.18
2024-01-20T05:59:26.760Z,15.15
2024-01-20T06:02:28.609Z,12.45
2024-01-20T06:05:31.283Z,12.80
2024-01-20T06:08:33.303Z,11.40
2024-01-20T06:11:35.208Z,13.18
2024-01-20T06:14:37.084Z,12.75
2024-01-20T06:17:39.541Z,12.70
2024-01-20T06:20:41.505Z,15.35
2024-01-20T06:23:43.473Z,19.38
2024-01-20T06:26:45.416Z,16.48
2024-01-20T06:29:47.351Z,19.65
2024-01-20T06:32:49.268Z,25.48
2024-01-20T06:35:51.774Z,32.20
2024-01-20T06:38:54.412Z,28.42
2024-01-20T06:41:56.551Z,33.83
2024-01-20T06:45:00.911Z,35.58
2024-01-20T06:48:03.928Z,27.48
2024-01-20T06:51:07.735Z,25.77
2024-01-20T06:54:10.039Z,24.10
2024-01-20T06:57:12.059Z,28.02
2024-01-20T07:00:15.144Z,31.98
2024-01-20T07:03:17.281Z,34.30
2024-01-20T07:06:23.989Z,31.42
2024-01-20T07:09:26.802Z,27.95
2024-01-20T07:12:30.837Z,26.58
2024-01-20T07:15:33.059Z,27.77
2024-01-20T07:18:35.141Z,28.70
2024-01-20T07:21:37.085Z,29.95
2024-01-20T07:24:39.094Z,32.97
2024-01-20T07:27:41.028Z,25.77
2024-01-20T07:30:42.910Z,18.17
2024-01-20T07:33:45.000Z,16.42
2024-01-20T07:36:47.134Z,15.85
2024-01-20T07:39:48.997Z,14.02
2024-01-20T07:42:50.857Z,12.98
2024-01-20T07:45:56.879Z,17.08
2024-01-20T07:48:58.735Z,20.27
2024-01-20T07:52:00.869Z,24.10
2024-01-20T07:55:02.830Z,25.20
2024-01-20T07:58:04.690Z,25.40
2024-01-20T08:01:06.560Z,24.30
2024-01-20T08:04:09.100Z,24.65
2024-01-20T08:07:11.092Z,21.90
2024-01-20T08:10:13.168Z,18.65
2024-01-20T08:13:15.149Z,18.38
2024-01-20T08:16:17.166Z,21.05
2024-01-20T08:19:19.287Z,24.52
2024-01-20T08:22:22.326Z,18.85
2024-01-20T08:25:24.338Z,19.95
2024-01-20T08:28:26.227Z,18.95
2024-01-20T08:31:28.757Z,20.70
2024-01-20T08:34:30.778Z,17.63
2024-01-20T08:37:32.753Z,17.13
2024-01-20T08:40:34.578Z,25.75
2024-01-20T08:43:42.205Z,13.15
2024-01-20T08:46:44.205Z,11.13
2024-01-20T08:49:49.084Z,11.20
2024-01-20T08:52:50.965Z,11.05
2024-01-20T08:55:52.963Z,11.43
2024-01-20T08:58:55.067Z,10.23
2024-01-20T09:01:57.017Z,10.98
2024-01-20T09:04:59.475Z,11.55
2024-01-20T09:08:01.384Z,10.05
2024-01-20T09:11:03.252Z,12.07
2024-01-20T09:14:06.275Z,14.02
2024-01-20T09:17:08.178Z,9.60
2024-01-20T09:20:10.448Z,12.38
2024-01-20T09:23:12.518Z,11.65
2024-01-20T09:26:14.448Z,10.70
2024-01-20T09:29:16.348Z,11.60
2024-01-20T09:32:18.414Z,12.88
2024-01-20T09:35:20.237Z,9.05
2024-01-20T09:38:22.746Z,8.05
2024-01-20T09:41:26.462Z,6.55
2024-01-20T09:44:28.471Z,8.85
2024-01-20T09:47:30.448Z,7.15
2024-01-20T09:50:32.378Z,6.97
2024-01-20T09:53:36.260Z,10.88
2024-01-20T09:56:39.289Z,7.03
2024-01-20T09:59:43.643Z,7.45
2024-01-20T10:02:47.098Z,11.45
2024-01-20T10:05:49.632Z,10.30
2024-01-20T10:08:51.517Z,9.65
2024-01-20T10:11:53.624Z,8.00
2024-01-20T10:14:55.761Z,10.95
2024-01-20T10:17:59.532Z,7.93
2024-01-20T10:21:02.811Z,11.75
2024-01-20T10:24:05.901Z,11.65
2024-01-20T10:27:08.071Z,9.75
2024-01-20T10:30:10.480Z,8.98
2024-01-20T10:33:12.548Z,8.93
2024-01-20T10:36:18.889Z,8.23
2024-01-20T10:39:23.057Z,9.25
2024-01-20T10:42:31.808Z,10.32
2024-01-20T10:45:42.785Z,8.88
2024-01-20T10:48:51.821Z,7.15
2024-01-20T10:51:57.718Z,9.48
2024-01-20T10:55:00.971Z,8.07
2024-01-20T10:58:07.882Z,7.13
2024-01-20T11:01:12.992Z,10.55
2024-01-20T11:04:21.352Z,9.32
2024-01-20T11:07:32.955Z,10.40
2024-01-20T11:10:41.677Z,8.90
2024-01-20T11:13:48.298Z,12.65
2024-01-20T11:16:51.928Z,9.68
2024-01-20T11:19:54.716Z,12.65
2024-01-20T11:22:57.182Z,11.07
2024-01-20T11:26:10.610Z,10.73
2024-01-20T11:29:12.607Z,11.35
2024-01-20T11:32:14.595Z,12.25
2024-01-20T11:35:16.972Z,8.65
2024-01-20T11:38:19.198Z,9.98
2024-01-20T11:41:21.182Z,10.52
2024-01-20T11:44:23.540Z,11.63
2024-01-20T11:47:25.686Z,10.32
2024-01-20T11:50:27.930Z,10.90
2024-01-20T11:53:31.837Z,10.27
2024-01-20T11:56:33.606Z,9.75
2024-01-20T11:59:35.502Z,10.20
2024-01-20T12:02:37.501Z,9.32
2024-01-20T12:05:39.569Z,8.13
2024-01-20T12:08:46.340Z,10.45
2024-01-20T12:11:48.502Z,14.73
2024-01-20T12:14:51.513Z,9.05
2024-01-20T12:17:53.656Z,13.52
2024-01-20T12:20:55.789Z,9.77
2024-01-20T12:23:57.716Z,7.95
2024-01-20T12:26:59.586Z,7.28
2024-01-20T12:30:01.824Z,11.75
2024-01-20T12:33:03.977Z,9.73
2024-01-20T12:36:06.048Z,11.60
2024-01-20T12:39:09.039Z,14.48
2024-01-20T12:42:11.062Z,13.43
2024-01-20T12:45:13.395Z,9.23
2024-01-20T12:48:15.487Z,10.00
2024-01-20T12:51:17.652Z,11.68
2024-01-20T12:54:19.805Z,12.85
2024-01-20T12:57:21.968Z,9.88
2024-01-20T13:00:24.016Z,12.32
2024-01-20T13:03:26.767Z,14.88
2024-01-20T13:06:32.183Z,10.60
2024-01-20T13:09:34.073Z,12.40
2024-01-20T13:12:36.216Z,9.35
2024-01-20T13:15:38.221Z,8.57
2024-01-20T13:18:40.168Z,8.15
2024-01-20T13:21:42.714Z,12.40
2024-01-20T13:24:44.703Z,7.38
2024-01-20T13:27:46.698Z,10.70
2024-01-20T13:30:51.431Z,10.38
2024-01-20T13:33:54.668Z,10.90
2024-01-20T13:36:57.213Z,11.98
2024-01-20T13:39:59.041Z,9.55
2024-01-20T13:43:01.053Z,8.32
2024-01-20T13:46:03.885Z,11.70
2024-01-20T13:49:07.634Z,11.15
2024-01-20T13:52:11.000Z,12.18
2024-01-20T13:55:15.636Z,12.05
2024-01-20T13:58:17.480Z,9.82
2024-01-20T14:01:22.875Z,9.10
2024-01-20T14:04:25.633Z,14.82
2024-01-20T14:07:27.610Z,10.07
2024-01-20T14:10:29.560Z,11.38
2024-01-20T14:13:31.351Z,11.30
2024-01-20T14:16:33.225Z,11.88
2024-01-20T14:19:35.167Z,10.55
2024-01-20T14:22:37.203Z,7.65
2024-01-20T14:25:39.522Z,10.32
2024-01-20T14:28:41.624Z,10.60
2024-01-20T14:31:48.971Z,11.40
2024-01-20T14:34:50.994Z,11.15
2024-01-20T14:37:53.056Z,10.48
2024-01-20T14:40:54.962Z,9.32
2024-01-20T14:43:56.973Z,9.57
2024-01-20T14:46:58.871Z,10.00
2024-01-20T14:50:02.399Z,13.85
2024-01-20T14:53:04.711Z,12.13
2024-01-20T14:56:07.573Z,14.05
2024-01-20T14:59:09.766Z,11.85
2024-01-20T15:02:11.751Z,12.90
2024-01-20T15:05:13.644Z,13.30
2024-01-20T15:08:15.592Z,20.20
2024-01-20T15:11:17.468Z,13.38
2024-01-20T15:14:19.359Z,13.38
2024-01-20T15:17:21.409Z,16.50
2024-01-20T15:20:23.427Z,14.50
2024-01-20T15:23:25.368Z,19.95
2024-01-20T15:26:27.334Z,21.48
2024-01-20T15:29:31.697Z,18.48
2024-01-20T15:32:33.652Z,19.27
2024-01-20T15:35:39.472Z,22.50
2024-01-20T15:38:43.016Z,20.48
2024-01-20T15:41:47.286Z,21.55
2024-01-20T15:44:49.242Z,21.77
2024-01-20T15:47:51.244Z,22.85
2024-01-20T15:50:53.179Z,22.30
2024-01-20T15:53:55.184Z,19.17
2024-01-20T15:56:57.099Z,17.80
2024-01-20T15:59:59.595Z,23.38
2024-01-20T16:03:02.002Z,21.75
2024-01-20T16:06:04.128Z,22.08
2024-01-20T16:09:06.378Z,22.55
2024-01-20T16:12:08.493Z,24.58
2024-01-20T16:15:12.961Z,25.13
2024-01-20T16:18:15.617Z,25.13
2024-01-20T16:21:27.649Z,25.73
2024-01-20T16:24:29.579Z,27.58
2024-01-20T16:27:31.510Z,25.10
2024-01-20T16:30:34.450Z,39.38
2024-01-20T16:33:36.706Z,33.55
2024-01-20T16:36:38.919Z,31.63
2024-01-20T16:39:42.882Z,37.45
2024-01-20T16:42:46.493Z,37.13
2024-01-20T16:45:48.586Z,31.20
2024-01-20T16:48:51.342Z,35.70
2024-01-20T16:51:53.353Z,35.00
2024-01-20T16:54:55.283Z,41.10
2024-01-20T16:57:58.076Z,40.80
2024-01-20T17:01:00.242Z,38.35
2024-01-20T17:04:03.029Z,44.03
2024-01-20T17:07:05.215Z,36.90
2024-01-20T17:10:07.829Z,33.50
2024-01-20T17:13:09.713Z,29.58
2024-01-20T17:16:11.598Z,28.85
2024-01-20T17:19:15.515Z,30.65
2024-01-20T17:22:17.558Z,26.58
2024-01-20T17:25:19.590Z,25.85
2024-01-20T17:28:21.334Z,25.55
2024-01-20T17:31:27.358Z,28.67
2024-01-20T17:34:30.044Z,26.85
2024-01-20T17:37:32.003Z,26.35
2024-01-20T17:40:34.267Z,28.05
2024-01-20T17:43:36.994Z,29.15
2024-01-20T17:46:38.942Z,33.03
2024-01-20T17:49:41.253Z,30.35
2024-01-20T17:53:02.940Z,27.20
2024-01-20T17:56:05.781Z,30.25
2024-01-20T17:59:07.723Z,32.50
2024-01-20T18:02:09.744Z,30.58
2024-01-20T18:05:12.413Z,29.75
2024-01-20T18:08:14.483Z,30.35
2024-01-20T18:11:17.311Z,28.83
2024-01-20T18:14:19.278Z,31.73
2024-01-20T18:17:21.183Z,25.17
2024-01-20T18:20:23.145Z,33.67
2024-01-20T18:23:26.355Z,20.23
2024-01-20T18:26:28.332Z,23.52
2024-01-20T18:29:30.397Z,23.48
2024-01-20T18:32:32.622Z,22.77
2024-01-20T18:35:34.707Z,26.23
2024-01-20T18:38:36.741Z,25.05
2024-01-20T18:41:38.862Z,23.98
2024-01-20T18:44:44.646Z,26.65
2024-01-20T18:47:47.336Z,29.23
2024-01-20T18:50:49.887Z,30.02
2024-01-20T18:53:52.212Z,29.73
2024-01-20T18:56:54.580Z,29.92
2024-01-20T18:59:57.629Z,30.45
2024-01-20T19:02:59.461Z,29.88
2024-01-20T19:06:01.272Z,31.38
2024-01-20T19:09:04.724Z,29.08
2024-01-20T19:12:06.944Z,26.02
2024-01-20T19:15:09.919Z,23.83
2024-01-20T19:18:12.342Z,30.33
2024-01-20T19:21:14.329Z,26.08
2024-01-20T19:24:17.381Z,26.35
2024-01-20T19:27:21.124Z,24.50
2024-01-20T19:30:23.130Z,32.47
2024-01-20T19:33:25.199Z,26.15
2024-01-20T19:36:27.242Z,26.52
2024-01-20T19:39:29.286Z,29.10
2024-01-20T19:42:31.222Z,26.33
2024-01-20T19:45:33.375Z,29.33
2024-01-20T19:48:36.148Z,27.38
2024-01-20T19:51:42.609Z,27.75
2024-01-20T19:54:45.987Z,30.95
2024-01-20T19:57:48.636Z,28.35
2024-01-20T20:00:51.485Z,29.27
2024-01-20T20:03:53.706Z,29.15
2024-01-20T20:06:55.852Z,29.48
2024-01-20T20:09:57.976Z,28.50
2024-01-20T20:13:00.012Z,29.70
2024-01-20T20:16:01.906Z,26.60
2024-01-20T20:19:04.762Z,26.13
2024-01-20T20:22:06.794Z,27.30
2024-01-20T20:25:08.756Z,26.15
2024-01-20T20:28:10.770Z,26.98
2024-01-20T20:31:12.755Z,23.85
2024-01-20T20:34:14.856Z,26.15
2024-01-20T20:37:18.685Z,25.92
2024-01-20T20:40:20.630Z,25.75
2024-01-20T20:43:23.069Z,29.25
2024-01-20T20:46:25.104Z,28.63
2024-01-20T20:49:26.993Z,28.73
2024-01-20T20:52:29.463Z,29.13
2024-01-20T20:55:31.553Z,28.38
2024-01-20T20:58:33.467Z,28.35
2024-01-20T21:01:35.371Z,32.60
2024-01-20T21:04:39.322Z,29.60
2024-01-20T21:07:41.724Z,31.63
2024-01-20T21:10:43.706Z,28.50
2024-01-20T21:13:45.586Z,28.52
2024-01-20T21:16:48.273Z,27.35
2024-01-20T21:19:50.290Z,29.48
2024-01-20T21:22:52.270Z,29.33
2024-01-20T21:25:55.315Z,31.58
2024-01-20T21:28:57.281Z,28.63
2024-01-20T21:31:59.170Z,34.95
2024-01-20T21:35:01.201Z,33.97
2024-01-20T21:38:05.903Z,31.38
2024-01-20T21:41:07.938Z,28.00
2024-01-20T21:44:09.826Z,25.88
2024-01-20T21:47:11.887Z,31.40
2024-01-20T21:50:15.082Z,29.27
2024-01-20T21:53:21.958Z,30.13
2024-01-20T21:56:23.882Z,28.70
2024-01-20T21:59:25.910Z,29.42
2024-01-20T22:02:28.841Z,29.95
2024-01-20T22:05:30.995Z,33.58
2024-01-20T22:08:33.524Z,41.22
2024-01-20T22:11:35.468Z,33.80
2024-01-20T22:14:37.575Z,38.13
2024-01-20T22:17:39.662Z,36.55
2024-01-20T22:20:41.617Z,34.63
2024-01-20T22:23:44.135Z,32.88
2024-01-20T22:26:46.677Z,36.42
2024-01-20T22:29:48.528Z,33.67
2024-01-20T22:32:52.820Z,33.70
2024-01-20T22:35:54.890Z,35.88
2024-01-20T22:38:56.957Z,31.65
2024-01-20T22:41:58.896Z,36.15
2024-01-20T22:45:00.831Z,32.88
2024-01-20T22:48:03.266Z,29.42
2024-01-20T22:51:05.592Z,31.67
2024-01-20T22:54:07.525Z,32.58
2024-01-20T22:57:09.487Z,33.60
2024-01-20T23:00:14.659Z,31.33
2024-01-20T23:03:16.652Z,36.95
2024-01-20T23:06:18.922Z,30.83
2024-01-20T23:09:22.102Z,31.90
2024-01-20T23:12:24.150Z,32.60
2024-01-20T23:15:25.981Z,32.42
2024-01-20T23:18:27.893Z,35.63
2024-01-20T23:21:29.815Z,33.38
2024-01-20T23:24:31.943Z,33.50
2024-01-20T23:27:36.280Z,29.42
2024-01-20T23:30:38.476Z,29.35
2024-01-20T23:33:40.644Z,30.83
2024-01-20T23:36:42.675Z,31.25
2024-01-20T23:39:44.706Z,32.13
2024-01-20T23:42:46.616Z,33.17
2024-01-20T23:45:49.863Z,33.38
2024-01-20T23:48:51.796Z,29.95
2024-01-20T23:51:54.946Z,32.88
2024-01-20T23:54:57.858Z,34.65
2024-01-20T23:57:59.695Z,34.42
